createdAt,value
2018-12-05T00:00:49.188Z,10.87
2018-12-05T00:03:18.929Z,11.23
2018-12-05T00:05:49.388Z,13.53
2018-12-05T00:08:19.174Z,11.20
2018-12-05T00:10:49.017Z,14.87
2018-12-05T00:13:18.979Z,13.67
2018-12-05T00:15:48.657Z,11.53
2018-12-05T00:18:18.467Z,12.03
2018-12-05T00:20:48.278Z,13.13
2018-12-05T00:23:18.112Z,12.00
2018-12-05T00:25:48.093Z,14.17
2018-12-05T00:28:17.949Z,13.00
2018-12-05T00:30:47.695Z,12.80
2018-12-05T00:33:17.573Z,13.27
2018-12-05T00:35:47.364Z,13.60
2018-12-05T00:38:17.024Z,10.57
2018-12-05T00:40:46.938Z,16.40
2018-12-05T00:43:16.661Z,13.50
2018-12-05T00:45:46.521Z,10.03
2018-12-05T00:48:16.341Z,12.60
2018-12-05T00:50:46.334Z,15.50
2018-12-05T00:53:16.212Z,12.50
2018-12-05T00:55:46.202Z,14.70
2018-12-05T00:58:16.045Z,14.33
2018-12-05T01:00:45.890Z,15.33
2018-12-05T01:03:15.773Z,9.50
2018-12-05T01:05:45.517Z,11.57
2018-12-05T01:08:15.930Z,16.67
2018-12-05T01:10:46.171Z,11.97
2018-12-05T01:13:15.833Z,16.27
2018-12-05T01:15:45.598Z,10.37
2018-12-05T01:18:15.781Z,13.63
2018-12-05T01:20:45.487Z,15.00
2018-12-05T01:23:15.232Z,12.73
2018-12-05T01:25:46.237Z,15.60
2018-12-05T01:28:16.285Z,13.60
2018-12-05T01:30:45.964Z,14.60
2018-12-05T01:33:16.451Z,15.00
2018-12-05T01:35:46.165Z,14.57
2018-12-05T01:38:16.215Z,14.83
2018-12-05T01:40:45.993Z,11.13
2018-12-05T01:43:15.849Z,23.30
2018-12-05T01:45:45.804Z,17.33
2018-12-05T01:48:15.700Z,13.17
2018-12-05T01:50:45.401Z,10.40
2018-12-05T01:53:15.840Z,16.90
2018-12-05T01:55:45.634Z,12.83
2018-12-05T01:58:15.592Z,20.70
2018-12-05T02:00:45.272Z,13.47
2018-12-05T02:03:15.300Z,15.30
2018-12-05T02:05:45.173Z,15.17
2018-12-05T02:08:14.998Z,13.33
2018-12-05T02:10:44.709Z,12.50
2018-12-05T02:13:14.665Z,12.70
2018-12-05T02:15:44.480Z,15.83
2018-12-05T02:18:14.547Z,16.80
2018-12-05T02:20:45.591Z,15.23
2018-12-05T02:23:15.568Z,13.77
2018-12-05T02:25:45.454Z,13.33
2018-12-05T02:28:15.894Z,15.07
2018-12-05T02:30:45.729Z,14.60
2018-12-05T02:33:15.773Z,11.50
2018-12-05T02:35:45.646Z,13.47
2018-12-05T02:38:15.612Z,12.80
2018-12-05T02:40:45.585Z,16.43
2018-12-05T02:43:15.373Z,16.23
2018-12-05T02:45:45.426Z,16.03
2018-12-05T02:48:15.206Z,14.07
2018-12-05T02:50:44.911Z,13.47
2018-12-05T02:53:14.634Z,15.43
2018-12-05T02:55:44.885Z,12.67
2018-12-05T02:58:14.637Z,16.20
2018-12-05T03:00:44.448Z,14.17
2018-12-05T03:03:14.311Z,11.67
2018-12-05T03:05:43.961Z,15.47
2018-12-05T03:08:14.238Z,15.13
2018-12-05T03:10:44.132Z,15.37
2018-12-05T03:13:13.800Z,16.00
2018-12-05T03:15:43.716Z,15.60
2018-12-05T03:18:13.497Z,13.60
2018-12-05T03:20:43.464Z,12.03
2018-12-05T03:23:13.292Z,16.67
2018-12-05T03:25:43.122Z,19.33
2018-12-05T03:28:12.934Z,12.00
2018-12-05T03:30:42.758Z,15.50
2018-12-05T03:33:12.701Z,14.13
2018-12-05T03:35:42.455Z,18.63
2018-12-05T03:38:12.506Z,15.93
2018-12-05T03:40:42.398Z,15.00
2018-12-05T03:43:12.426Z,15.13
2018-12-05T03:45:43.047Z,19.03
2018-12-05T03:48:13.050Z,15.00
2018-12-05T03:50:42.748Z,18.40
2018-12-05T03:53:12.485Z,19.77
2018-12-05T03:55:42.223Z,19.43
2018-12-05T03:58:11.906Z,17.53
2018-12-05T04:00:42.420Z,19.07
2018-12-05T04:03:12.276Z,18.30
2018-12-05T04:05:42.070Z,21.27
2018-12-05T04:08:11.949Z,17.67
2018-12-05T04:10:42.546Z,16.97
2018-12-05T04:13:12.218Z,16.03
2018-12-05T04:15:42.012Z,24.37
2018-12-05T04:18:12.969Z,20.23
2018-12-05T04:20:42.978Z,18.67
2018-12-05T04:23:12.720Z,18.37
2018-12-05T04:25:42.601Z,15.93
2018-12-05T04:28:12.250Z,18.77
2018-12-05T04:30:42.205Z,16.53
2018-12-05T04:33:12.158Z,21.33
2018-12-05T04:35:41.820Z,18.70
2018-12-05T04:38:11.932Z,20.73
2018-12-05T04:40:41.772Z,19.00
2018-12-05T04:43:11.497Z,20.10
2018-12-05T04:45:41.435Z,19.40
2018-12-05T04:48:11.369Z,19.30
2018-12-05T04:50:41.997Z,15.00
2018-12-05T04:53:11.654Z,18.30
2018-12-05T04:55:41.477Z,21.03
2018-12-05T04:58:11.345Z,20.57
2018-12-05T05:00:41.145Z,17.87
2018-12-05T05:03:10.945Z,21.57
2018-12-05T05:05:40.622Z,16.37
2018-12-05T05:08:10.494Z,17.27
2018-12-05T05:10:40.273Z,20.13
2018-12-05T05:13:10.185Z,19.63
2018-12-05T05:15:39.897Z,22.23
2018-12-05T05:18:09.777Z,19.17
2018-12-05T05:20:39.689Z,14.80
2018-12-05T05:23:09.551Z,18.27
2018-12-05T05:25:40.073Z,18.93
2018-12-05T05:28:09.966Z,21.23
2018-12-05T05:30:39.765Z,18.17
2018-12-05T05:33:09.739Z,15.80
2018-12-05T05:35:39.526Z,16.27
2018-12-05T05:38:09.903Z,17.80
2018-12-05T05:40:39.661Z,17.70
2018-12-05T05:43:09.365Z,16.57
2018-12-05T05:45:39.964Z,16.73
2018-12-05T05:48:09.827Z,18.07
2018-12-05T05:50:39.586Z,14.70
2018-12-05T05:53:09.489Z,20.10
2018-12-05T05:55:39.353Z,11.53
2018-12-05T05:58:09.063Z,19.03
2018-12-05T06:00:38.937Z,12.77
2018-12-05T06:03:09.235Z,16.73
2018-12-05T06:05:39.128Z,15.33
2018-12-05T06:08:08.945Z,17.00
2018-12-05T06:10:38.864Z,14.37
2018-12-05T06:13:08.890Z,14.90
2018-12-05T06:15:38.723Z,13.67
2018-12-05T06:18:09.523Z,16.10
2018-12-05T06:20:39.481Z,15.70
2018-12-05T06:23:09.225Z,13.43
2018-12-05T06:25:38.958Z,16.50
2018-12-05T06:28:08.933Z,14.00
2018-12-05T06:30:38.688Z,11.70
2018-12-05T06:33:09.297Z,12.03
2018-12-05T06:35:39.868Z,14.53
2018-12-05T06:38:09.679Z,15.30
2018-12-05T06:40:39.691Z,15.00
2018-12-05T06:43:09.479Z,14.37
2018-12-05T06:45:39.453Z,10.70
2018-12-05T06:48:09.421Z,12.20
2018-12-05T06:50:39.328Z,12.67
2018-12-05T06:53:09.710Z,14.07
2018-12-05T06:55:39.527Z,13.60
2018-12-05T06:58:09.205Z,12.83
2018-12-05T07:00:39.632Z,13.20
2018-12-05T07:03:09.442Z,14.63
2018-12-05T07:05:39.440Z,14.20
2018-12-05T07:08:09.253Z,13.03
2018-12-05T07:10:39.100Z,13.20
2018-12-05T07:13:08.965Z,14.57
2018-12-05T07:15:38.678Z,14.27
2018-12-05T07:18:08.689Z,10.27
2018-12-05T07:20:38.511Z,14.60
2018-12-05T07:23:08.312Z,11.47
2018-12-05T07:25:38.234Z,13.03
2018-12-05T07:28:08.140Z,13.20
2018-12-05T07:30:37.880Z,13.07
2018-12-05T07:33:07.658Z,13.10
2018-12-05T07:35:37.414Z,12.20
2018-12-05T07:38:07.213Z,15.43
2018-12-05T07:40:36.969Z,11.13
2018-12-05T07:43:06.798Z,15.07
2018-12-05T07:45:36.701Z,10.33
2018-12-05T07:48:06.461Z,14.23
2018-12-05T07:50:36.264Z,12.73
2018-12-05T07:53:06.257Z,13.13
2018-12-05T07:55:36.040Z,12.53
2018-12-05T07:58:05.847Z,11.57
2018-12-05T08:00:35.741Z,17.23
2018-12-05T08:03:05.528Z,13.13
2018-12-05T08:05:35.974Z,11.93
2018-12-05T08:08:06.097Z,9.40
2018-12-05T08:10:36.012Z,10.73
2018-12-05T08:13:05.968Z,11.87
2018-12-05T08:15:36.140Z,12.90
2018-12-05T08:18:06.466Z,14.00
2018-12-05T08:20:36.173Z,10.30
2018-12-05T08:23:06.462Z,11.77
2018-12-05T08:25:36.333Z,11.33
2018-12-05T08:28:06.125Z,13.53
2018-12-05T08:30:35.948Z,13.27
2018-12-05T08:33:05.957Z,7.57
2018-12-05T08:35:35.716Z,7.90
2018-12-05T08:38:05.790Z,18.20
2018-12-05T08:40:35.741Z,10.33
2018-12-05T08:43:06.017Z,7.70
2018-12-05T08:45:35.869Z,13.53
2018-12-05T08:48:05.548Z,9.03
2018-12-05T08:50:35.381Z,8.83
2018-12-05T08:53:05.869Z,10.80
2018-12-05T08:55:35.812Z,6.43
2018-12-05T08:58:05.658Z,12.57
2018-12-05T09:00:35.535Z,5.93
2018-12-05T09:03:05.552Z,10.77
2018-12-05T09:05:35.312Z,8.33
2018-12-05T09:08:05.178Z,9.07
2018-12-05T09:10:35.305Z,9.03
2018-12-05T09:13:05.593Z,10.63
2018-12-05T09:15:35.427Z,12.33
2018-12-05T09:18:06.160Z,5.87
2018-12-05T09:20:36.117Z,5.67
2018-12-05T09:23:06.004Z,10.93
2018-12-05T09:25:36.406Z,9.70
2018-12-05T09:28:07.222Z,7.63
2018-12-05T09:30:37.503Z,11.23
2018-12-05T09:33:07.301Z,9.80
2018-12-05T09:35:37.220Z,7.70
2018-12-05T09:38:07.671Z,7.40
2018-12-05T09:40:37.488Z,13.47
2018-12-05T09:43:07.277Z,10.20
2018-12-05T09:45:37.078Z,8.40
2018-12-05T09:48:06.983Z,8.03
2018-12-05T09:50:36.659Z,9.67
2018-12-05T09:53:06.408Z,12.47
2018-12-05T09:55:36.159Z,8.90
2018-12-05T09:58:05.977Z,8.67
2018-12-05T10:00:35.906Z,11.33
2018-12-05T10:03:05.752Z,9.43
2018-12-05T10:05:35.436Z,11.30
2018-12-05T10:08:05.365Z,9.97
2018-12-05T10:10:35.189Z,12.27
2018-12-05T10:13:05.298Z,11.33
2018-12-05T10:15:35.125Z,11.53
2018-12-05T10:18:05.952Z,11.67
2018-12-05T10:20:35.836Z,10.10
2018-12-05T10:23:05.624Z,12.57
2018-12-05T10:25:35.400Z,7.93
2018-12-05T10:28:06.538Z,8.17
2018-12-05T10:30:36.440Z,9.87
2018-12-05T10:33:06.198Z,9.73
2018-12-05T10:35:36.048Z,11.70
2018-12-05T10:38:06.138Z,11.03
2018-12-05T10:40:35.926Z,7.77
2018-12-05T10:43:05.742Z,11.17
2018-12-05T10:45:36.263Z,11.27
2018-12-05T10:48:05.932Z,9.07
2018-12-05T10:50:35.674Z,12.40
2018-12-05T10:53:05.791Z,12.47
2018-12-05T10:55:35.531Z,11.67
2018-12-05T10:58:05.690Z,10.93
2018-12-05T11:00:40.707Z,9.57
2018-12-05T11:03:19.480Z,13.40
2018-12-05T11:05:54.488Z,11.03
2018-12-05T11:08:29.556Z,11.93
2018-12-05T11:11:04.781Z,12.17
2018-12-05T11:13:39.594Z,12.97
2018-12-05T11:17:13.755Z,14.17
2018-12-05T11:20:48.509Z,15.10
2018-12-05T11:23:23.577Z,14.37
2018-12-05T11:25:54.192Z,11.63
2018-12-05T11:28:24.198Z,14.80
2018-12-05T11:30:54.189Z,13.77
2018-12-05T11:33:24.399Z,15.37
2018-12-05T11:35:54.253Z,12.03
2018-12-05T11:38:24.269Z,14.20
2018-12-05T11:40:54.324Z,11.77
2018-12-05T11:43:24.799Z,14.30
2018-12-05T11:45:54.706Z,13.37
2018-12-05T11:48:24.588Z,15.53
2018-12-05T11:50:54.426Z,13.73
2018-12-05T11:53:24.157Z,14.87
2018-12-05T11:55:54.072Z,13.30
2018-12-05T11:58:24.440Z,14.30
2018-12-05T12:00:54.429Z,13.90
2018-12-05T12:06:14.010Z,13.30
2018-12-05T12:08:43.729Z,12.87
2018-12-05T12:11:13.761Z,17.87
2018-12-05T12:13:43.563Z,15.20
2018-12-05T12:16:13.359Z,11.20
2018-12-05T12:18:43.812Z,14.47
2018-12-05T12:21:13.513Z,15.20
2018-12-05T12:23:43.399Z,14.23
2018-12-05T12:26:13.448Z,13.93
2018-12-05T12:28:43.250Z,12.87
2018-12-05T12:31:12.948Z,14.63
2018-12-05T12:33:42.686Z,13.57
2018-12-05T12:36:12.563Z,16.33
2018-12-05T12:38:42.395Z,13.40
2018-12-05T12:41:12.276Z,12.67
2018-12-05T12:43:42.038Z,11.90
2018-12-05T12:46:11.738Z,15.20
2018-12-05T12:48:41.715Z,12.53
2018-12-05T12:51:11.610Z,11.03
2018-12-05T12:53:41.497Z,14.03
2018-12-05T12:56:11.422Z,12.87
2018-12-05T12:58:41.137Z,16.07
2018-12-05T13:01:11.002Z,13.70
2018-12-05T13:03:40.745Z,15.83
2018-12-05T13:06:10.684Z,11.00
2018-12-05T13:08:40.578Z,12.30
2018-12-05T13:11:10.574Z,14.17
2018-12-05T13:13:40.391Z,11.73
2018-12-05T13:16:10.201Z,11.97
2018-12-05T13:18:40.024Z,11.47
2018-12-05T13:21:09.796Z,14.27
2018-12-05T13:23:39.589Z,12.33
2018-12-05T13:28:53.314Z,13.60
2018-12-05T13:31:23.101Z,14.40
2018-12-05T13:33:53.080Z,12.57
2018-12-05T13:36:22.821Z,11.73
2018-12-05T13:38:53.504Z,12.00
2018-12-05T13:41:23.257Z,12.57
2018-12-05T13:43:52.971Z,12.67
2018-12-05T13:46:29.735Z,13.43
2018-12-05T13:48:54.571Z,14.37
2018-12-05T13:51:24.751Z,12.13
2018-12-05T13:53:54.740Z,13.30
2018-12-05T13:56:24.476Z,12.27
2018-12-05T13:58:54.425Z,12.60
2018-12-05T14:01:24.165Z,14.77
2018-12-05T14:03:54.190Z,11.80
2018-12-05T14:06:24.046Z,10.83
2018-12-05T14:08:54.243Z,10.60
2018-12-05T14:11:24.109Z,13.83
2018-12-05T14:13:53.960Z,11.07
2018-12-05T14:16:23.841Z,11.53
2018-12-05T14:18:53.662Z,14.60
2018-12-05T14:21:23.461Z,11.50
2018-12-05T14:23:53.378Z,13.20
2018-12-05T14:26:23.300Z,13.50
2018-12-05T14:28:53.016Z,12.17
2018-12-05T14:31:22.964Z,11.60
2018-12-05T14:33:52.751Z,11.73
2018-12-05T14:36:22.482Z,13.37
2018-12-05T14:38:52.478Z,14.90
2018-12-05T14:41:22.401Z,13.27
2018-12-05T14:43:52.575Z,11.97
2018-12-05T14:46:22.293Z,12.87
2018-12-05T14:48:52.077Z,11.77
2018-12-05T14:51:22.904Z,11.07
2018-12-05T14:53:53.705Z,14.20
2018-12-05T14:56:23.665Z,13.70
2018-12-05T14:58:53.510Z,15.33
2018-12-05T15:01:24.014Z,12.17
2018-12-05T15:03:53.695Z,12.37
2018-12-05T15:06:23.563Z,10.57
2018-12-05T15:08:53.419Z,11.67
2018-12-05T15:11:23.575Z,14.27
2018-12-05T15:13:53.420Z,11.20
2018-12-05T15:16:23.475Z,14.70
2018-12-05T15:18:53.302Z,13.50
2018-12-05T15:21:23.164Z,13.13
2018-12-05T15:23:52.945Z,13.13
2018-12-05T15:26:23.260Z,13.23
2018-12-05T15:28:53.171Z,14.47
2018-12-05T15:31:24.107Z,11.80
2018-12-05T15:33:54.017Z,12.80
2018-12-05T15:36:24.001Z,11.70
2018-12-05T15:38:54.206Z,12.37
2018-12-05T15:41:24.125Z,13.67
2018-12-05T15:43:54.240Z,11.80
2018-12-05T15:46:24.235Z,13.63
2018-12-05T15:48:54.084Z,12.30
2018-12-05T15:51:23.885Z,11.13
2018-12-05T15:53:53.607Z,13.57
2018-12-05T15:56:23.954Z,15.33
2018-12-05T15:58:54.882Z,10.93
2018-12-05T16:01:24.899Z,13.97
2018-12-05T16:03:54.857Z,14.87
2018-12-05T16:06:24.766Z,12.20
2018-12-05T16:08:54.860Z,9.87
2018-12-05T16:11:24.795Z,11.37
2018-12-05T16:13:54.726Z,13.87
2018-12-05T16:16:24.740Z,12.80
2018-12-05T16:18:54.474Z,11.83
2018-12-05T16:21:24.513Z,10.63
2018-12-05T16:23:54.358Z,13.47
2018-12-05T16:26:24.285Z,14.27
2018-12-05T16:28:55.362Z,11.17
2018-12-05T16:31:25.308Z,13.10
2018-12-05T16:33:55.093Z,9.87
2018-12-05T16:36:24.972Z,15.00
2018-12-05T16:38:54.842Z,13.83
2018-12-05T16:41:24.670Z,14.67
2018-12-05T16:43:54.685Z,12.53
2018-12-05T16:46:24.508Z,12.27
2018-12-05T16:48:54.242Z,10.77
2018-12-05T16:51:23.950Z,12.93
2018-12-05T16:53:53.835Z,10.40
2018-12-05T16:56:23.704Z,10.13
2018-12-05T16:58:54.118Z,10.20
2018-12-05T17:01:24.008Z,11.60
2018-12-05T17:03:53.781Z,11.30
2018-12-05T17:06:23.498Z,11.17
2018-12-05T17:08:53.338Z,12.17
2018-12-05T17:11:23.331Z,12.23
2018-12-05T17:13:53.337Z,11.87
2018-12-05T17:16:23.264Z,13.77
2018-12-05T17:18:53.794Z,15.03
2018-12-05T17:21:23.544Z,12.27
2018-12-05T17:23:53.354Z,10.87
2018-12-05T17:26:23.400Z,12.90
2018-12-05T17:28:53.257Z,15.73
2018-12-05T17:31:24.070Z,12.80
2018-12-05T17:33:53.930Z,11.43
2018-12-05T17:36:23.825Z,9.90
2018-12-05T17:38:53.652Z,17.23
2018-12-05T17:41:23.563Z,12.97
2018-12-05T17:43:53.581Z,13.43
2018-12-05T17:46:23.389Z,12.50
2018-12-05T17:48:53.198Z,12.90
2018-12-05T17:51:23.017Z,10.77
2018-12-05T17:53:52.861Z,12.80
2018-12-05T17:56:23.268Z,14.47
2018-12-05T17:58:53.987Z,12.43
2018-12-05T18:01:24.166Z,11.43
2018-12-05T18:03:54.105Z,10.90
2018-12-05T18:06:24.153Z,12.73
2018-12-05T18:08:53.945Z,10.50
2018-12-05T18:11:23.894Z,10.93
2018-12-05T18:13:53.770Z,11.93
2018-12-05T18:16:23.522Z,12.27
2018-12-05T18:18:53.281Z,13.57
2018-12-05T18:21:23.327Z,11.90
2018-12-05T18:23:53.697Z,13.30
2018-12-05T18:26:23.678Z,12.50
2018-12-05T18:28:53.705Z,10.93
2018-12-05T18:31:23.487Z,12.60
2018-12-05T18:33:53.352Z,10.77
2018-12-05T18:36:23.112Z,12.70
2018-12-05T18:38:52.941Z,13.30
2018-12-05T18:41:22.859Z,11.00
2018-12-05T18:43:52.718Z,10.63
2018-12-05T18:46:22.631Z,10.83
2018-12-05T18:48:52.345Z,12.40
2018-12-05T18:51:22.673Z,12.37
2018-12-05T18:53:52.601Z,12.90
2018-12-05T18:56:22.610Z,11.83
2018-12-05T18:58:52.550Z,11.17
2018-12-05T19:01:22.306Z,10.03
2018-12-05T19:03:51.982Z,9.77
2018-12-05T19:06:21.853Z,11.20
2018-12-05T19:08:51.654Z,10.07
2018-12-05T19:11:21.821Z,12.17
2018-12-05T19:14:57.910Z,10.03
2018-12-05T19:17:27.933Z,12.20
2018-12-05T19:19:57.762Z,11.40
2018-12-05T19:22:28.229Z,11.67
2018-12-05T19:24:58.111Z,11.70
2018-12-05T19:27:28.044Z,10.93
2018-12-05T19:29:57.915Z,9.30
2018-12-05T19:32:27.826Z,11.80
2018-12-05T19:34:57.705Z,9.53
2018-12-05T19:37:27.462Z,9.23
2018-12-05T19:39:57.398Z,10.57
2018-12-05T19:42:27.248Z,9.70
2018-12-05T19:44:57.362Z,8.73
2018-12-05T19:47:27.118Z,11.63
2018-12-05T19:49:56.981Z,10.83
2018-12-05T19:52:27.029Z,11.67
2018-12-05T19:54:57.538Z,10.47
2018-12-05T19:57:27.667Z,9.97
2018-12-05T19:59:57.381Z,9.33
2018-12-05T20:02:27.234Z,8.60
2018-12-05T20:04:57.452Z,9.57
2018-12-05T20:07:27.380Z,7.93
2018-12-05T20:09:57.131Z,10.23
2018-12-05T20:12:27.040Z,10.47
2018-12-05T20:14:56.866Z,7.93
2018-12-05T20:17:27.100Z,10.10
2018-12-05T20:19:56.923Z,10.13
2018-12-05T20:22:26.916Z,9.33
2018-12-05T20:24:56.912Z,11.03
2018-12-05T20:27:26.917Z,8.20
2018-12-05T20:29:56.884Z,9.33
2018-12-05T20:32:26.846Z,8.27
2018-12-05T20:34:56.875Z,10.83
2018-12-05T20:37:26.566Z,11.03
2018-12-05T20:39:56.935Z,8.50
2018-12-05T20:42:26.681Z,11.00
2018-12-05T20:44:56.606Z,9.83
2018-12-05T20:47:26.544Z,8.77
2018-12-05T20:49:56.308Z,10.80
2018-12-05T20:52:26.225Z,7.60
2018-12-05T20:54:56.255Z,10.07
2018-12-05T20:57:26.186Z,9.00
2018-12-05T20:59:56.073Z,8.90
2018-12-05T21:02:25.878Z,8.47
2018-12-05T21:04:55.989Z,11.13
2018-12-05T21:07:25.988Z,10.40
2018-12-05T21:09:55.847Z,11.10
2018-12-05T21:12:25.784Z,9.13
2018-12-05T21:14:56.491Z,10.30
2018-12-05T21:17:26.514Z,9.20
2018-12-05T21:19:56.316Z,9.73
2018-12-05T21:22:26.111Z,10.77
2018-12-05T21:24:55.846Z,9.93
2018-12-05T21:27:25.645Z,8.30
2018-12-05T21:29:55.474Z,9.70
2018-12-05T21:32:26.024Z,11.27
2018-12-05T21:34:55.853Z,9.63
2018-12-05T21:37:25.797Z,9.70
2018-12-05T21:39:55.752Z,9.67
2018-12-05T21:42:25.860Z,9.67
2018-12-05T21:44:55.642Z,9.17
2018-12-05T21:47:25.410Z,7.70
2018-12-05T21:49:55.278Z,12.30
2018-12-05T21:52:25.037Z,11.50
2018-12-05T21:54:54.880Z,9.33
2018-12-05T21:57:25.004Z,10.67
2018-12-05T21:59:54.773Z,10.13
2018-12-05T22:02:24.544Z,10.40
2018-12-05T22:04:54.485Z,10.20
2018-12-05T22:07:24.321Z,9.63
2018-12-05T22:09:54.379Z,11.60
2018-12-05T22:12:24.133Z,9.60
2018-12-05T22:14:53.948Z,10.03
2018-12-05T22:17:23.820Z,13.73
2018-12-05T22:19:53.562Z,12.27
2018-12-05T22:22:23.320Z,10.70
2018-12-05T22:24:53.093Z,10.50
2018-12-05T22:27:22.817Z,12.70
2018-12-05T22:29:52.830Z,10.93
2018-12-05T22:32:22.711Z,10.00
2018-12-05T22:34:52.698Z,10.10
2018-12-05T22:37:22.465Z,10.10
2018-12-05T22:39:52.339Z,10.47
2018-12-05T22:42:22.382Z,9.40
2018-12-05T22:44:52.376Z,10.53
2018-12-05T22:47:22.142Z,10.27
2018-12-05T22:49:52.304Z,10.83
2018-12-05T22:52:21.994Z,11.83
2018-12-05T22:54:51.890Z,11.23
2018-12-05T22:57:21.661Z,10.00
2018-12-05T22:59:51.369Z,9.33
2018-12-05T23:02:22.057Z,11.47
2018-12-05T23:04:51.869Z,10.57
2018-12-05T23:07:21.924Z,11.90
2018-12-05T23:09:51.776Z,7.83
2018-12-05T23:12:21.767Z,13.53
2018-12-05T23:14:51.606Z,10.37
2018-12-05T23:17:21.665Z,11.17
2018-12-05T23:19:51.573Z,9.07
2018-12-05T23:22:21.549Z,10.53
2018-12-05T23:24:51.348Z,11.93
2018-12-05T23:27:21.185Z,10.00
2018-12-05T23:29:50.967Z,11.57
2018-12-05T23:32:20.764Z,10.30
2018-12-05T23:34:51.038Z,10.13
2018-12-05T23:37:21.080Z,11.23
2018-12-05T23:39:50.917Z,8.93
2018-12-05T23:42:20.734Z,9.53
2018-12-05T23:44:50.579Z,10.90
2018-12-05T23:47:20.381Z,8.27
2018-12-05T23:49:50.166Z,9.37
2018-12-05T23:52:19.897Z,9.30
2018-12-05T23:54:49.640Z,10.13
2018-12-05T23:57:19.509Z,9.47
2018-12-05T23:59:49.181Z,11.27
